Time;durP1;ratioP1;P1;durP2;ratioP2;P2;SDS_P1;SDS_P2;PMS_P1;PMS_P2;Temp;Humidity;BMP_temperature;BMP_pressure;BME280_temperature;BME280_humidity;BME280_pressure;Samples;Min_cycle;Max_cycle;Signal;HPM_P1;HPM_P2
2021/12/31 05:00:59;;;;;;;5.50;3.40;;;10.40;99.90;;;;;;5680831;23;20834;-73
2021/12/31 05:03:26;;;;;;;6.40;3.97;;;10.40;99.90;;;;;;4934622;29;20493;-75
2021/12/31 05:05:53;;;;;;;4.10;3.63;;;10.50;99.90;;;;;;4934799;29;20493;-73
2021/12/31 05:08:20;;;;;;;4.03;3.70;;;10.40;99.90;;;;;;4934989;29;20453;-74
2021/12/31 05:10:47;;;;;;;4.50;3.73;;;10.40;99.90;;;;;;4934508;29;20564;-74
2021/12/31 05:13:15;;;;;;;3.53;3.20;;;10.40;99.90;;;;;;4935050;29;20540;-75
2021/12/31 05:15:45;;;;;;;9.50;4.10;;;10.30;99.90;;;;;;4934878;29;20454;-76
2021/12/31 05:18:14;;;;;;;3.67;3.20;;;10.30;99.90;;;;;;4934410;29;20552;-76
2021/12/31 05:20:42;;;;;;;3.70;3.40;;;10.30;99.90;;;;;;4934355;29;21088;-75
2021/12/31 05:23:09;;;;;;;7.67;3.70;;;10.30;99.90;;;;;;4934830;29;20950;-76
2021/12/31 05:25:36;;;;;;;3.83;3.43;;;10.30;99.90;;;;;;4934541;29;20580;-76
2021/12/31 05:28:03;;;;;;;4.33;3.93;;;10.30;99.90;;;;;;4934455;29;21033;-76
2021/12/31 05:30:30;;;;;;;5.00;3.77;;;10.20;99.90;;;;;;4934172;29;21033;-75
2021/12/31 05:32:56;;;;;;;4.73;4.23;;;10.30;99.90;;;;;;4934745;29;20548;-75
2021/12/31 05:35:25;;;;;;;6.60;4.10;;;10.20;99.90;;;;;;4934719;29;20553;-76
2021/12/31 05:37:52;;;;;;;6.70;4.30;;;10.20;99.90;;;;;;4934553;29;21035;-76
2021/12/31 05:40:19;;;;;;;4.30;3.90;;;10.20;99.90;;;;;;4934105;29;20462;-76
2021/12/31 05:42:46;;;;;;;4.67;3.70;;;10.20;99.90;;;;;;4934655;29;20560;-76
2021/12/31 05:45:13;;;;;;;4.93;3.77;;;10.20;99.90;;;;;;4934613;29;20537;-75
2021/12/31 05:47:40;;;;;;;4.77;3.90;;;10.10;99.90;;;;;;4934537;29;20489;-75
2021/12/31 05:50:18;;;;;;;3.70;3.40;;;10.10;99.90;;;;;;4936086;29;20485;-75
2021/12/31 05:52:47;;;;;;;4.03;3.60;;;10.00;99.90;;;;;;4938229;29;20456;-76
2021/12/31 05:55:14;;;;;;;4.53;3.70;;;10.00;99.90;;;;;;4938154;29;20548;-75
2021/12/31 05:57:41;;;;;;;4.67;3.57;;;10.00;99.90;;;;;;4938454;29;20533;-75
2021/12/31 06:00:08;;;;;;;9.83;3.90;;;9.90;99.90;;;;;;4938030;29;20457;-76
2021/12/31 06:02:36;;;;;;;5.20;3.50;;;9.80;99.90;;;;;;4937784;29;20592;-75
2021/12/31 06:05:03;;;;;;;6.40;3.50;;;9.70;99.90;;;;;;4937971;29;20958;-75
2021/12/31 06:07:30;;;;;;;6.17;4.23;;;9.70;99.90;;;;;;4937666;29;20592;-75
2021/12/31 06:09:58;;;;;;;4.77;4.23;;;9.60;99.90;;;;;;4938049;29;20552;-75
2021/12/31 06:12:25;;;;;;;4.70;4.07;;;9.60;99.90;;;;;;4937918;29;20560;-76
2021/12/31 06:14:53;;;;;;;5.80;3.60;;;9.70;99.90;;;;;;4937966;29;20457;-76
2021/12/31 06:17:25;;;;;;;4.13;3.73;;;9.60;99.90;;;;;;4937775;29;20445;-76
2021/12/31 06:19:53;;;;;;;4.83;4.30;;;9.60;99.90;;;;;;4937510;29;20454;-76
2021/12/31 06:22:20;;;;;;;4.83;3.83;;;9.60;99.90;;;;;;4937566;29;21008;-75
2021/12/31 06:24:46;;;;;;;4.70;4.13;;;9.60;99.90;;;;;;4937657;29;20456;-76
2021/12/31 06:27:15;;;;;;;5.07;3.63;;;9.60;99.90;;;;;;4937718;29;20520;-76
2021/12/31 06:29:42;;;;;;;5.40;3.77;;;9.60;99.90;;;;;;4937452;29;20544;-75
2021/12/31 06:32:09;;;;;;;4.63;3.70;;;9.50;99.90;;;;;;4937518;29;20565;-76
2021/12/31 06:34:36;;;;;;;4.50;3.30;;;9.50;99.90;;;;;;4937312;29;20544;-76
2021/12/31 06:37:03;;;;;;;4.37;3.97;;;9.50;99.90;;;;;;4937671;29;20889;-75
2021/12/31 06:39:30;;;;;;;4.40;4.00;;;9.50;99.90;;;;;;4937016;29;20994;-75
2021/12/31 06:41:57;;;;;;;4.43;4.03;;;9.40;99.90;;;;;;4936995;29;20509;-75
2021/12/31 06:44:25;;;;;;;4.47;3.60;;;9.40;99.90;;;;;;4937186;29;20544;-75
2021/12/31 06:46:52;;;;;;;4.40;4.00;;;9.30;99.90;;;;;;4937222;29;20497;-75
2021/12/31 06:49:19;;;;;;;5.93;4.00;;;9.30;99.90;;;;;;4937303;29;20460;-75
2021/12/31 06:51:46;;;;;;;4.70;4.17;;;9.30;99.90;;;;;;4937251;29;20570;-75
2021/12/31 06:54:12;;;;;;;4.83;4.30;;;9.30;99.90;;;;;;4937233;29;20536;-75
2021/12/31 06:56:39;;;;;;;5.67;4.23;;;9.20;99.90;;;;;;4936912;29;20896;-75
2021/12/31 06:59:06;;;;;;;4.20;3.80;;;9.20;99.90;;;;;;4936838;29;20544;-75
2021/12/31 07:01:34;;;;;;;4.77;4.27;;;9.10;99.90;;;;;;4936400;29;20568;-66
2021/12/31 07:04:01;;;;;;;6.20;4.30;;;9.10;99.90;;;;;;4936858;29;20492;-66
2021/12/31 07:06:28;;;;;;;4.33;3.93;;;9.00;99.90;;;;;;4937032;29;20515;-66
2021/12/31 07:08:55;;;;;;;6.40;3.67;;;9.00;99.90;;;;;;4936557;29;20465;-66
2021/12/31 07:11:23;;;;;;;3.67;3.37;;;8.90;99.90;;;;;;4936434;29;20473;-67
2021/12/31 07:13:50;;;;;;;3.93;3.50;;;8.80;99.90;;;;;;4936795;29;20446;-75
2021/12/31 07:16:17;;;;;;;3.40;3.10;;;8.80;99.90;;;;;;4936623;29;20456;-75
2021/12/31 07:18:45;;;;;;;5.40;3.23;;;8.80;99.90;;;;;;4936582;29;20998;-75
2021/12/31 07:21:12;;;;;;;3.47;3.17;;;8.80;99.90;;;;;;4936454;29;20502;-75
2021/12/31 07:23:39;;;;;;;3.90;3.60;;;8.80;99.90;;;;;;4936685;29;20564;-75
2021/12/31 07:26:07;;;;;;;4.07;3.27;;;8.80;99.90;;;;;;4936499;29;20588;-75
2021/12/31 07:28:34;;;;;;;4.70;3.90;;;8.70;99.90;;;;;;4936512;29;20482;-75
2021/12/31 07:31:01;;;;;;;5.13;4.63;;;8.80;99.90;;;;;;4936131;29;20564;-75
2021/12/31 07:33:28;;;;;;;4.97;4.47;;;8.80;99.90;;;;;;4936745;29;20462;-75
2021/12/31 07:35:57;;;;;;;5.47;4.83;;;8.70;99.90;;;;;;4936549;29;20458;-75
2021/12/31 07:38:28;;;;;;;5.30;4.80;;;8.70;99.90;;;;;;4936443;29;20544;-76
2021/12/31 07:40:55;;;;;;;4.27;3.83;;;8.60;99.90;;;;;;4936048;29;21065;-75
2021/12/31 07:43:22;;;;;;;5.77;5.10;;;8.60;99.90;;;;;;4936120;29;20445;-74
2021/12/31 07:45:49;;;;;;;5.03;4.60;;;8.60;99.90;;;;;;4936329;29;20540;-75
2021/12/31 07:48:17;;;;;;;5.47;4.10;;;8.50;99.90;;;;;;4936083;29;20959;-76
2021/12/31 07:50:44;;;;;;;5.27;4.17;;;8.50;99.90;;;;;;4935799;29;20905;-75
2021/12/31 07:53:12;;;;;;;5.50;5.00;;;8.50;99.90;;;;;;4935652;29;21018;-75
2021/12/31 07:55:39;;;;;;;4.40;3.97;;;8.50;99.90;;;;;;4917147;29;20458;-75
2021/12/31 07:58:07;;;;;;;5.53;4.80;;;8.50;99.90;;;;;;4916987;29;20454;-75
2021/12/31 08:00:35;;;;;;;9.53;6.40;;;8.50;99.90;;;;;;4916780;29;20557;-75
2021/12/31 08:03:03;;;;;;;8.03;7.00;;;8.50;99.90;;;;;;4916912;29;20939;-75
2021/12/31 08:05:32;;;;;;;8.57;7.10;;;8.50;99.90;;;;;;4917022;29;20533;-75
2021/12/31 08:08:04;;;;;;;7.70;6.63;;;8.50;99.90;;;;;;4916962;29;20518;-75
2021/12/31 08:10:33;;;;;;;8.47;6.33;;;8.40;99.90;;;;;;4916300;29;20845;-75
2021/12/31 08:13:01;;;;;;;6.50;4.90;;;8.40;99.90;;;;;;4916268;29;20455;-75
2021/12/31 08:15:28;;;;;;;5.30;4.03;;;8.40;99.90;;;;;;4916802;29;20457;-75
2021/12/31 08:17:55;;;;;;;5.70;3.90;;;8.40;99.90;;;;;;4916635;29;20514;-75
2021/12/31 08:20:23;;;;;;;3.63;3.03;;;8.30;99.90;;;;;;4916461;29;21022;-75
2021/12/31 08:22:50;;;;;;;5.07;4.27;;;8.30;99.90;;;;;;4916315;29;20541;-66
2021/12/31 08:25:17;;;;;;;9.07;6.20;;;8.40;99.90;;;;;;4919630;29;20940;-66
2021/12/31 08:27:45;;;;;;;10.97;8.33;;;8.40;99.90;;;;;;4916230;29;20505;-66
2021/12/31 08:30:13;;;;;;;16.60;10.50;;;8.40;99.90;;;;;;4915324;29;20545;-66
2021/12/31 08:32:40;;;;;;;17.43;12.23;;;8.50;99.90;;;;;;4916115;29;20458;-65
2021/12/31 08:35:07;;;;;;;21.60;12.10;;;8.50;99.90;;;;;;4915796;29;20534;-66
2021/12/31 08:37:35;;;;;;;21.20;12.90;;;8.40;99.90;;;;;;4915727;29;20959;-68
2021/12/31 08:40:02;;;;;;;24.47;12.10;;;8.40;99.90;;;;;;4915209;29;20482;-65
2021/12/31 08:42:29;;;;;;;17.13;11.83;;;8.40;99.90;;;;;;4915884;29;20557;-75
2021/12/31 08:44:58;;;;;;;19.53;11.67;;;8.50;99.90;;;;;;4915735;29;20580;-74
2021/12/31 08:47:25;;;;;;;18.67;11.90;;;8.50;99.90;;;;;;4915522;29;20577;-74
2021/12/31 08:49:51;;;;;;;15.70;10.20;;;8.50;99.90;;;;;;4914988;29;20553;-75
2021/12/31 08:52:18;;;;;;;13.30;9.90;;;8.50;99.90;;;;;;4915824;29;20573;-75
2021/12/31 08:54:45;;;;;;;15.17;10.20;;;8.50;99.90;;;;;;4915740;29;20541;-76
2021/12/31 08:57:12;;;;;;;12.37;9.13;;;8.60;99.90;;;;;;4915814;29;20538;-75
2021/12/31 08:59:39;;;;;;;15.57;9.80;;;8.60;99.90;;;;;;4915189;29;20493;-75
2021/12/31 09:02:08;;;;;;;13.93;9.77;;;8.70;99.90;;;;;;4915501;29;20613;-76
2021/12/31 09:04:35;;;;;;;9.60;7.63;;;8.80;99.90;;;;;;4915264;29;20557;-75
2021/12/31 09:07:02;;;;;;;9.20;6.80;;;8.90;99.90;;;;;;4915664;29;20553;-76
2021/12/31 09:09:29;;;;;;;11.30;7.50;;;9.00;99.90;;;;;;4917717;29;20893;-75
2021/12/31 09:11:56;;;;;;;11.83;6.70;;;9.00;99.90;;;;;;4934605;29;20564;-75
2021/12/31 09:14:23;;;;;;;10.20;8.17;;;9.20;99.90;;;;;;4930942;29;20458;-76
2021/12/31 09:16:50;;;;;;;13.40;9.27;;;9.40;99.90;;;;;;4933534;29;20455;-75
2021/12/31 09:19:19;;;;;;;12.60;9.40;;;9.50;99.90;;;;;;4952945;29;20621;-76
2021/12/31 09:21:45;;;;;;;13.93;10.00;;;9.50;99.90;;;;;;4953640;29;20571;-66
2021/12/31 09:24:12;;;;;;;10.50;6.83;;;9.60;99.90;;;;;;4953376;29;20456;-76
2021/12/31 09:26:39;;;;;;;14.83;10.73;;;9.70;99.90;;;;;;4953714;29;20529;-75
2021/12/31 09:29:06;;;;;;;11.67;8.83;;;9.90;99.90;;;;;;4952940;29;20543;-76
2021/12/31 09:31:33;;;;;;;10.13;6.87;;;10.10;99.90;;;;;;4953361;29;20996;-75
2021/12/31 09:34:00;;;;;;;6.33;5.63;;;10.20;99.90;;;;;;4953438;29;20547;-75
2021/12/31 09:36:30;;;;;;;7.07;5.60;;;10.40;99.90;;;;;;4953480;29;20536;-75
2021/12/31 09:38:57;;;;;;;7.73;4.03;;;10.50;99.90;;;;;;4952931;28;20539;-75
2021/12/31 09:41:23;;;;;;;5.87;4.13;;;10.70;99.90;;;;;;4953592;29;20473;-75
2021/12/31 09:43:51;;;;;;;4.73;4.10;;;10.80;99.90;;;;;;4953653;29;20463;-75
2021/12/31 09:46:19;;;;;;;4.50;3.90;;;10.90;99.90;;;;;;4953359;29;20450;-75
2021/12/31 09:48:46;;;;;;;7.33;4.73;;;11.10;99.90;;;;;;4953387;29;20321;-75
2021/12/31 09:51:13;;;;;;;3.97;3.57;;;11.30;99.90;;;;;;4953384;29;20583;-75
2021/12/31 09:53:41;;;;;;;3.70;3.40;;;11.50;99.90;;;;;;4953516;29;21004;-75
2021/12/31 09:56:08;;;;;;;5.10;3.10;;;11.60;99.90;;;;;;4953354;28;20544;-75
2021/12/31 09:58:36;;;;;;;4.10;3.70;;;11.70;99.90;;;;;;4953044;29;20468;-75
2021/12/31 10:01:04;;;;;;;4.23;3.43;;;11.80;99.90;;;;;;4952773;28;20488;-75
2021/12/31 10:03:33;;;;;;;3.00;2.80;;;11.90;99.90;;;;;;4953261;29;20488;-75
2021/12/31 10:06:01;;;;;;;3.53;3.20;;;12.00;99.90;;;;;;4953237;29;20461;-76
2021/12/31 10:08:30;;;;;;;3.17;2.63;;;12.10;99.90;;;;;;4953041;29;20583;-75
2021/12/31 10:11:07;;;;;;;2.70;2.50;;;12.20;99.90;;;;;;4952741;29;20469;-76
2021/12/31 10:13:35;;;;;;;3.20;2.30;;;12.40;99.90;;;;;;4953278;28;20447;-75
2021/12/31 10:16:02;;;;;;;3.17;2.47;;;12.50;99.90;;;;;;4953110;29;20504;-75
2021/12/31 10:18:31;;;;;;;2.87;2.57;;;12.70;99.90;;;;;;4952997;29;20449;-75
2021/12/31 10:20:58;;;;;;;3.03;2.57;;;12.80;99.90;;;;;;4952499;28;20559;-76
2021/12/31 10:23:25;;;;;;;2.70;2.23;;;12.90;99.90;;;;;;4952979;29;20536;-76
2021/12/31 10:26:05;;;;;;;5.00;2.53;;;13.10;99.90;;;;;;4952714;29;20539;-76
2021/12/31 10:28:34;;;;;;;3.00;2.23;;;13.20;99.90;;;;;;4952866;29;21201;-75
2021/12/31 10:31:10;;;;;;;3.93;2.43;;;13.40;99.90;;;;;;4952492;28;20828;-76
2021/12/31 10:33:42;;;;;;;4.00;2.47;;;13.50;99.90;;;;;;4953247;29;20448;-76
2021/12/31 10:36:09;;;;;;;4.27;3.37;;;13.50;99.90;;;;;;4954589;28;20460;-76
2021/12/31 10:38:39;;;;;;;5.77;3.50;;;13.70;99.90;;;;;;4956346;29;20981;-75
2021/12/31 10:41:06;;;;;;;3.43;2.70;;;13.80;99.90;;;;;;4956502;29;20477;-66
2021/12/31 10:43:35;;;;;;;3.60;2.50;;;13.90;99.90;;;;;;4956336;29;20453;-76
2021/12/31 10:46:05;;;;;;;2.47;2.27;;;14.00;99.90;;;;;;4956288;29;20841;-75
2021/12/31 10:48:40;;;;;;;2.40;2.10;;;14.20;99.90;;;;;;4955971;29;20489;-76
2021/12/31 10:51:07;;;;;;;3.83;1.70;;;14.20;99.90;;;;;;4955670;29;20507;-76
2021/12/31 10:53:34;;;;;;;3.23;2.80;;;14.40;99.90;;;;;;4956435;29;20555;-72
2021/12/31 10:56:09;;;;;;;2.70;1.77;;;14.60;99.90;;;;;;4955904;28;20480;-71
2021/12/31 10:58:39;;;;;;;1.93;1.80;;;14.90;99.90;;;;;;4956046;28;20452;-76
2021/12/31 11:01:08;;;;;;;2.83;1.70;;;14.90;99.90;;;;;;4955467;29;20938;-76
2021/12/31 11:03:36;;;;;;;4.10;2.30;;;14.90;99.90;;;;;;4956076;29;20488;-76
2021/12/31 11:06:06;;;;;;;2.17;1.90;;;15.20;99.90;;;;;;4955896;29;20464;-76
2021/12/31 11:08:34;;;;;;;2.00;1.80;;;15.30;99.90;;;;;;4955735;29;21246;-76
2021/12/31 11:11:03;;;;;;;2.37;1.60;;;15.50;99.90;;;;;;4955535;29;20532;-76
2021/12/31 11:13:30;;;;;;;1.90;1.70;;;15.30;99.90;;;;;;4956339;29;20484;-76
2021/12/31 11:16:00;;;;;;;2.50;1.67;;;15.00;99.90;;;;;;4955411;28;20456;-74
2021/12/31 11:18:27;;;;;;;2.13;1.60;;;15.30;99.90;;;;;;4953973;29;20529;-74
2021/12/31 11:20:57;;;;;;;1.50;1.40;;;15.50;99.90;;;;;;4954876;29;20548;-71
2021/12/31 11:23:25;;;;;;;1.80;1.50;;;15.40;99.90;;;;;;4955598;29;20459;-76
2021/12/31 11:25:54;;;;;;;2.20;1.97;;;15.40;99.90;;;;;;4955462;29;20449;-76
2021/12/31 11:28:26;;;;;;;2.57;1.63;;;15.30;99.90;;;;;;4955339;28;20499;-75
2021/12/31 11:30:53;;;;;;;2.13;1.73;;;15.40;99.90;;;;;;4955069;29;20551;-75
2021/12/31 11:33:26;;;;;;;2.83;1.87;;;15.40;99.90;;;;;;4955582;29;20535;-75
2021/12/31 11:36:02;;;;;;;2.70;2.17;;;15.70;99.90;;;;;;4955392;28;20853;-76
2021/12/31 11:38:50;;;;;;;2.23;1.70;;;15.70;99.90;;;;;;4955158;29;20463;-76
2021/12/31 11:41:21;;;;;;;2.20;1.63;;;15.90;99.90;;;;;;4955548;28;20469;-75
2021/12/31 11:44:07;;;;;;;2.60;1.90;;;16.00;99.90;;;;;;4955444;29;20467;-75
2021/12/31 11:46:37;;;;;;;2.37;1.93;;;16.00;99.90;;;;;;4954609;28;20479;-77
2021/12/31 11:49:20;;;;;;;2.03;1.80;;;15.90;99.90;;;;;;4953689;29;20587;-75
2021/12/31 11:52:13;;;;;;;2.33;1.70;;;15.70;99.90;;;;;;4953557;29;20479;-75
2021/12/31 11:54:41;;;;;;;2.70;2.20;;;15.40;99.90;;;;;;4940071;29;20523;-77
2021/12/31 11:57:13;;;;;;;3.37;2.03;;;15.60;99.90;;;;;;4953885;29;20934;-76
2021/12/31 11:59:51;;;;;;;2.27;2.00;;;15.70;99.90;;;;;;4953611;28;20524;-77
2021/12/31 12:02:38;;;;;;;2.70;2.20;;;15.70;99.90;;;;;;4953946;29;20540;-77
2021/12/31 12:05:17;;;;;;;3.27;2.50;;;15.80;99.90;;;;;;4953774;29;20469;-77
2021/12/31 12:07:49;;;;;;;2.47;2.10;;;15.70;99.90;;;;;;4954138;29;20507;-77
2021/12/31 12:10:28;;;;;;;3.07;2.23;;;15.90;99.90;;;;;;4952981;29;21004;-77
2021/12/31 12:12:58;;;;;;;3.33;2.57;;;15.70;99.90;;;;;;4955300;29;20500;-76
2021/12/31 12:15:30;;;;;;;2.27;2.03;;;15.70;99.90;;;;;;4954127;29;20463;-77
2021/12/31 12:17:59;;;;;;;3.47;2.40;;;15.60;99.90;;;;;;4953526;29;20459;-77
2021/12/31 12:20:45;;;;;;;2.73;2.53;;;15.60;99.90;;;;;;4952539;29;20488;-77
2021/12/31 12:23:18;;;;;;;6.00;2.43;;;15.70;99.90;;;;;;4952884;29;20958;-77
2021/12/31 12:25:45;;;;;;;2.10;1.90;;;15.80;99.90;;;;;;4953370;29;20445;-77
2021/12/31 12:28:14;;;;;;;2.70;2.50;;;15.90;99.90;;;;;;4953539;29;20879;-76
2021/12/31 12:30:47;;;;;;;2.87;2.50;;;15.80;99.90;;;;;;4952170;29;20473;-77
2021/12/31 12:33:20;;;;;;;2.63;2.07;;;15.80;99.90;;;;;;4953535;28;20468;-77
2021/12/31 12:35:50;;;;;;;3.10;2.77;;;15.60;99.90;;;;;;4953674;29;20541;-77
2021/12/31 12:38:19;;;;;;;3.83;2.87;;;15.70;99.90;;;;;;4953397;29;20536;-77
2021/12/31 12:40:49;;;;;;;3.27;2.63;;;15.70;99.90;;;;;;4952526;29;20842;-77
2021/12/31 12:43:18;;;;;;;4.50;2.73;;;15.70;99.90;;;;;;4953104;29;20594;-76
2021/12/31 12:45:49;;;;;;;4.80;2.70;;;15.70;99.90;;;;;;4953336;29;20500;-76
2021/12/31 12:48:17;;;;;;;5.13;2.73;;;15.70;99.90;;;;;;4952305;29;20572;-69
2021/12/31 12:50:51;;;;;;;3.30;2.47;;;15.70;99.90;;;;;;4913303;29;20554;-67
2021/12/31 12:53:23;;;;;;;2.97;2.70;;;15.80;99.90;;;;;;4914579;29;20493;-67
2021/12/31 12:55:50;;;;;;;3.87;2.87;;;15.80;99.90;;;;;;4915301;29;20721;-67
2021/12/31 12:58:23;;;;;;;3.60;2.60;;;15.80;99.90;;;;;;4915258;29;20455;-68
2021/12/31 13:00:55;;;;;;;3.10;2.80;;;15.80;99.90;;;;;;4914997;29;20493;-68
2021/12/31 13:03:23;;;;;;;2.53;2.33;;;15.80;99.90;;;;;;4915737;29;20541;-68
2021/12/31 13:06:02;;;;;;;2.97;2.67;;;15.80;99.90;;;;;;4915556;29;20458;-68
2021/12/31 13:08:29;;;;;;;4.20;3.10;;;15.80;99.90;;;;;;4915171;29;20490;-73
2021/12/31 13:10:56;;;;;;;3.40;2.90;;;15.70;99.90;;;;;;4915207;29;20561;-71
2021/12/31 13:13:23;;;;;;;3.43;2.80;;;15.60;99.90;;;;;;4915715;29;20554;-70
2021/12/31 13:15:50;;;;;;;3.13;2.83;;;15.70;99.90;;;;;;4915415;29;20542;-74
2021/12/31 13:18:25;;;;;;;3.40;2.60;;;15.60;99.90;;;;;;4915479;29;21023;-74
2021/12/31 13:21:01;;;;;;;3.80;3.17;;;15.60;99.90;;;;;;4914865;29;20478;-74
2021/12/31 13:23:28;;;;;;;3.67;3.27;;;15.60;99.90;;;;;;4914651;29;20565;-74
2021/12/31 13:25:55;;;;;;;3.43;2.90;;;15.70;99.90;;;;;;4913989;29;20908;-74
2021/12/31 13:28:24;;;;;;;4.20;2.83;;;15.80;99.90;;;;;;4914634;29;20885;-74
2021/12/31 13:30:57;;;;;;;3.27;2.97;;;15.80;99.90;;;;;;4914431;29;20474;-74
2021/12/31 13:33:27;;;;;;;3.70;3.30;;;15.90;99.90;;;;;;4915033;29;20451;-74
2021/12/31 13:36:23;;;;;;;2.87;2.57;;;16.00;99.90;;;;;;4915042;29;20470;-74
2021/12/31 13:39:12;;;;;;;3.27;2.60;;;16.00;99.90;;;;;;4914999;29;20515;-74
2021/12/31 13:41:56;;;;;;;5.17;4.07;;;16.00;99.90;;;;;;4915001;29;20458;-74
2021/12/31 13:44:26;;;;;;;4.33;2.97;;;16.00;99.90;;;;;;4913530;29;20541;-74
2021/12/31 13:47:05;;;;;;;4.13;2.43;;;16.00;99.90;;;;;;4915357;29;20471;-74
2021/12/31 13:49:37;;;;;;;4.80;3.30;;;15.90;99.90;;;;;;4914453;29;20502;-74
2021/12/31 13:52:19;;;;;;;4.03;2.63;;;15.70;99.90;;;;;;4914917;29;20481;-74
2021/12/31 13:54:47;;;;;;;6.17;3.27;;;15.50;99.90;;;;;;4915155;29;20548;-74
2021/12/31 13:57:19;;;;;;;4.40;2.93;;;15.40;99.90;;;;;;4915066;29;20473;-74
2021/12/31 13:59:47;;;;;;;4.00;3.30;;;15.40;99.90;;;;;;4914584;29;20546;-74
2021/12/31 14:02:17;;;;;;;4.90;3.03;;;15.40;99.90;;;;;;4914794;29;20541;-74
2021/12/31 14:05:07;;;;;;;4.90;3.60;;;15.50;99.90;;;;;;4914516;29;20514;-74
2021/12/31 14:07:40;;;;;;;6.53;3.10;;;15.50;99.90;;;;;;4914741;29;20533;-74
2021/12/31 14:10:10;;;;;;;3.83;3.40;;;15.40;99.90;;;;;;4914492;29;20577;-74
2021/12/31 14:12:49;;;;;;;4.60;4.13;;;15.30;99.90;;;;;;4918567;29;20532;-74
2021/12/31 14:15:16;;;;;;;6.60;5.90;;;15.20;99.90;;;;;;4918630;29;20537;-75
2021/12/31 14:17:46;;;;;;;6.53;4.30;;;15.20;99.90;;;;;;4918094;29;20991;-74
2021/12/31 14:20:13;;;;;;;6.90;6.20;;;15.20;99.90;;;;;;4917842;29;20270;-75
2021/12/31 14:22:42;;;;;;;7.90;6.33;;;15.30;99.90;;;;;;4918126;29;20503;-75
2021/12/31 14:25:09;;;;;;;4.97;3.97;;;15.30;99.90;;;;;;4918280;29;20543;-74
2021/12/31 14:27:36;;;;;;;6.77;4.17;;;15.30;99.90;;;;;;4918053;29;20587;-75
2021/12/31 14:30:06;;;;;;;6.23;3.87;;;15.30;99.90;;;;;;4917781;29;20593;-74
2021/12/31 14:32:35;;;;;;;4.80;4.00;;;15.20;99.90;;;;;;4918179;29;20478;-74
2021/12/31 14:35:02;;;;;;;3.87;3.47;;;15.20;99.90;;;;;;4918220;29;20479;-74
2021/12/31 14:37:29;;;;;;;4.70;4.20;;;15.10;99.90;;;;;;4918242;29;20493;-74
2021/12/31 14:39:58;;;;;;;5.47;4.37;;;15.00;99.90;;;;;;4917353;29;20489;-74
2021/12/31 14:42:26;;;;;;;4.77;4.30;;;14.90;99.90;;;;;;4917964;29;20489;-74
2021/12/31 14:44:53;;;;;;;5.83;4.53;;;14.90;99.90;;;;;;4918063;29;20545;-74
2021/12/31 14:47:20;;;;;;;5.57;4.60;;;14.90;99.90;;;;;;4916762;29;20546;-74
2021/12/31 14:49:47;;;;;;;9.13;5.17;;;14.90;99.90;;;;;;4916133;29;20930;-74
2021/12/31 14:52:15;;;;;;;6.00;4.97;;;14.90;99.90;;;;;;4917922;29;20510;-74
2021/12/31 14:54:42;;;;;;;8.70;5.07;;;14.90;99.90;;;;;;4917417;29;20550;-74
2021/12/31 14:57:11;;;;;;;6.83;4.77;;;14.90;99.90;;;;;;4918107;29;20505;-74
2021/12/31 14:59:39;;;;;;;5.30;4.70;;;14.90;99.90;;;;;;4917217;29;20469;-74
2021/12/31 15:02:06;;;;;;;6.83;4.13;;;14.90;99.90;;;;;;4917640;29;20482;-74
2021/12/31 15:04:33;;;;;;;7.10;5.17;;;14.80;99.90;;;;;;4917546;29;20534;-73
2021/12/31 15:07:00;;;;;;;5.10;4.53;;;14.80;99.90;;;;;;4917676;29;20550;-73
2021/12/31 15:09:27;;;;;;;6.33;4.40;;;14.70;99.90;;;;;;4917014;29;20585;-75
2021/12/31 15:11:54;;;;;;;6.30;4.43;;;14.70;99.90;;;;;;4917547;29;20999;-73
2021/12/31 15:14:23;;;;;;;6.80;4.47;;;14.70;99.90;;;;;;4917401;29;20490;-73
2021/12/31 15:16:50;;;;;;;6.40;4.37;;;14.70;99.90;;;;;;4917489;29;20447;-73
2021/12/31 15:19:17;;;;;;;7.30;4.10;;;14.60;99.90;;;;;;4916689;29;20894;-74
2021/12/31 15:21:44;;;;;;;5.50;4.00;;;14.60;99.90;;;;;;4916871;29;20565;-73
2021/12/31 15:24:12;;;;;;;7.20;4.57;;;14.50;99.90;;;;;;4917447;29;20447;-74
2021/12/31 15:26:42;;;;;;;5.20;4.13;;;14.50;99.90;;;;;;4917579;29;20534;-76
2021/12/31 15:29:09;;;;;;;5.83;4.63;;;14.40;99.90;;;;;;4916703;29;20598;-76
2021/12/31 15:31:37;;;;;;;4.83;3.90;;;14.30;99.90;;;;;;4917090;29;20483;-76
2021/12/31 15:34:04;;;;;;;9.57;5.60;;;14.30;99.90;;;;;;4917099;29;20546;-76
2021/12/31 15:36:31;;;;;;;8.50;7.43;;;14.20;99.90;;;;;;4917195;29;20580;-75
2021/12/31 15:38:58;;;;;;;9.87;7.33;;;14.20;99.90;;;;;;4916409;29;20546;-75
2021/12/31 15:41:25;;;;;;;11.70;8.57;;;14.10;99.90;;;;;;4916988;29;20506;-75
2021/12/31 15:43:53;;;;;;;12.90;8.80;;;14.00;99.90;;;;;;4917066;29;20478;-75
2021/12/31 15:46:20;;;;;;;11.77;8.60;;;14.00;99.90;;;;;;4916886;29;20499;-76
2021/12/31 15:48:48;;;;;;;11.20;9.70;;;13.90;99.90;;;;;;4916412;29;21010;-75
2021/12/31 15:51:16;;;;;;;15.33;9.50;;;13.80;99.90;;;;;;4916679;29;20553;-76
2021/12/31 15:53:43;;;;;;;15.93;8.40;;;13.70;99.90;;;;;;4952006;29;20544;-76
2021/12/31 15:56:10;;;;;;;10.20;8.30;;;13.70;99.90;;;;;;4953976;29;20484;-75
2021/12/31 15:58:38;;;;;;;9.80;7.27;;;13.60;99.90;;;;;;4955034;29;20548;-75
2021/12/31 16:01:06;;;;;;;15.30;6.90;;;13.50;99.90;;;;;;4954011;29;20508;-75
2021/12/31 16:03:33;;;;;;;9.57;7.23;;;13.50;99.90;;;;;;4953901;29;20547;-75
2021/12/31 16:06:01;;;;;;;9.43;6.67;;;13.40;99.90;;;;;;4954052;29;20544;-75
2021/12/31 16:08:28;;;;;;;12.40;6.10;;;13.40;99.90;;;;;;4953818;28;20488;-77
2021/12/31 16:10:55;;;;;;;8.27;6.10;;;13.20;99.90;;;;;;4953825;29;20508;-76
2021/12/31 16:13:22;;;;;;;7.60;5.47;;;13.20;99.90;;;;;;4953862;29;20532;-76
2021/12/31 16:15:49;;;;;;;9.40;6.27;;;13.10;99.90;;;;;;4953642;29;20965;-76
2021/12/31 16:18:16;;;;;;;10.13;6.30;;;13.00;99.90;;;;;;4954091;29;20496;-75
2021/12/31 16:20:42;;;;;;;10.23;6.87;;;12.90;99.90;;;;;;4953380;29;20547;-76
2021/12/31 16:23:11;;;;;;;9.90;6.37;;;12.90;99.90;;;;;;4953840;29;20536;-75
2021/12/31 16:25:38;;;;;;;6.90;5.67;;;12.80;99.90;;;;;;4953774;29;20493;-75
2021/12/31 16:28:06;;;;;;;7.13;5.83;;;12.80;99.90;;;;;;4953880;29;20444;-75
2021/12/31 16:30:33;;;;;;;10.80;7.40;;;12.70;99.90;;;;;;4953096;29;20539;-75
2021/12/31 16:33:00;;;;;;;9.77;7.43;;;12.60;99.90;;;;;;4953375;28;20488;-75
2021/12/31 16:35:27;;;;;;;8.57;6.60;;;12.60;99.90;;;;;;4953759;28;20515;-75
2021/12/31 16:37:54;;;;;;;9.53;6.20;;;12.50;99.90;;;;;;4953521;29;20496;-75
2021/12/31 16:40:23;;;;;;;9.00;6.73;;;12.50;99.90;;;;;;4953263;29;20531;-75
2021/12/31 16:42:50;;;;;;;16.40;12.00;;;12.40;99.90;;;;;;4953361;29;21012;-76
2021/12/31 16:45:18;;;;;;;28.17;17.43;;;12.40;99.90;;;;;;4953993;29;20485;-75
2021/12/31 16:47:45;;;;;;;45.20;22.10;;;12.30;99.90;;;;;;4954328;29;20459;-75
2021/12/31 16:50:13;;;;;;;46.10;23.53;;;12.30;99.90;;;;;;4954117;29;20943;-75
2021/12/31 16:52:40;;;;;;;29.90;18.17;;;12.20;99.90;;;;;;4954285;29;20536;-76
2021/12/31 16:55:13;;;;;;;16.50;12.40;;;12.20;99.90;;;;;;4954487;29;20477;-76
2021/12/31 16:57:41;;;;;;;15.93;12.63;;;12.10;99.90;;;;;;4954164;28;20511;-76
2021/12/31 17:00:09;;;;;;;19.93;12.73;;;12.10;99.90;;;;;;4953957;29;20923;-76
2021/12/31 17:02:36;;;;;;;16.40;12.00;;;12.00;99.90;;;;;;4953857;28;20547;-75
2021/12/31 17:05:03;;;;;;;22.77;14.30;;;12.00;99.90;;;;;;4954097;29;20539;-76
2021/12/31 17:07:30;;;;;;;71.27;50.27;;;12.00;99.90;;;;;;4953993;29;20488;-75
2021/12/31 17:09:57;;;;;;;52.23;35.30;;;12.00;99.90;;;;;;4953536;28;20583;-75
2021/12/31 17:12:24;;;;;;;29.43;24.70;;;12.00;99.90;;;;;;4954035;29;20512;-75
2021/12/31 17:14:52;;;;;;;21.20;18.37;;;12.00;99.90;;;;;;4974514;23;21037;-74
2021/12/31 17:17:19;;;;;;;17.63;14.90;;;11.90;99.90;;;;;;4934760;29;20454;-74
2021/12/31 17:19:46;;;;;;;13.70;11.73;;;11.80;99.90;;;;;;4934094;29;20861;-74
2021/12/31 17:22:13;;;;;;;13.07;9.40;;;11.80;99.90;;;;;;4934809;29;20536;-74
2021/12/31 17:24:40;;;;;;;15.47;9.40;;;11.80;99.90;;;;;;4934472;29;20557;-75
2021/12/31 17:27:07;;;;;;;10.97;9.40;;;11.70;99.90;;;;;;4934859;29;20459;-75
2021/12/31 17:29:34;;;;;;;13.43;10.87;;;11.70;99.90;;;;;;4934576;29;21098;-75
2021/12/31 17:32:02;;;;;;;16.13;10.13;;;11.70;99.90;;;;;;4934976;29;20462;-67
2021/12/31 17:34:29;;;;;;;17.63;11.07;;;11.60;99.90;;;;;;4934621;29;20568;-68
2021/12/31 17:36:56;;;;;;;20.40;11.93;;;11.60;99.90;;;;;;4934563;29;20974;-67
2021/12/31 17:39:23;;;;;;;18.53;12.77;;;11.50;99.90;;;;;;4934236;29;20541;-67
2021/12/31 17:41:50;;;;;;;15.73;12.70;;;11.40;99.90;;;;;;4934587;29;20489;-67
2021/12/31 17:44:17;;;;;;;15.60;12.53;;;11.40;99.90;;;;;;4935040;29;20561;-75
2021/12/31 17:46:44;;;;;;;16.73;12.70;;;11.30;99.90;;;;;;4938540;29;20459;-75
2021/12/31 17:49:12;;;;;;;22.17;17.00;;;11.30;99.90;;;;;;4938082;29;20893;-75
2021/12/31 17:51:40;;;;;;;21.60;18.17;;;11.20;99.90;;;;;;4938123;29;20552;-75
2021/12/31 17:54:09;;;;;;;26.03;19.10;;;11.20;99.90;;;;;;4938397;29;20901;-76